createdAt,value
2019-02-15T00:00:53.574Z,81.93
2019-02-15T00:03:23.862Z,82.00
2019-02-15T00:05:54.363Z,82.00
2019-02-15T00:08:24.667Z,81.79
2019-02-15T00:10:55.060Z,82.06
2019-02-15T00:13:25.836Z,82.05
2019-02-15T00:15:56.245Z,82.05
2019-02-15T00:18:30.097Z,82.13
2019-02-15T00:21:20.460Z,82.11
2019-02-15T00:23:50.788Z,82.29
2019-02-15T00:26:21.990Z,82.36
2019-02-15T00:28:52.442Z,82.40
2019-02-15T00:31:22.843Z,82.17
2019-02-15T00:33:53.167Z,82.51
2019-02-15T00:36:23.447Z,82.61
2019-02-15T00:38:53.751Z,82.68
2019-02-15T00:41:24.006Z,82.69
2019-02-15T00:43:54.351Z,82.84
2019-02-15T00:46:29.182Z,82.83
2019-02-15T00:49:00.326Z,82.86
2019-02-15T00:51:44.259Z,83.00
2019-02-15T00:54:16.214Z,82.95
2019-02-15T00:56:48.139Z,82.69
2019-02-15T00:59:29.347Z,82.89
2019-02-15T01:02:03.956Z,82.93
2019-02-15T01:04:44.924Z,83.01
2019-02-15T01:07:16.826Z,83.16
2019-02-15T01:09:48.801Z,83.16
2019-02-15T01:12:23.743Z,83.15
2019-02-15T01:14:54.028Z,83.32
2019-02-15T01:17:24.298Z,83.20
2019-02-15T01:19:54.648Z,83.21
2019-02-15T01:22:24.898Z,83.25
2019-02-15T01:24:55.183Z,83.30
2019-02-15T01:27:27.902Z,83.39
2019-02-15T01:30:02.741Z,83.55
2019-02-15T01:32:34.679Z,83.78
2019-02-15T01:35:15.771Z,83.92
2019-02-15T01:37:57.793Z,83.98
2019-02-15T01:40:32.833Z,84.05
2019-02-15T01:43:04.753Z,84.12
2019-02-15T01:45:36.683Z,84.10
2019-02-15T01:48:06.948Z,84.04
2019-02-15T01:50:38.304Z,84.06
2019-02-15T01:53:08.579Z,84.17
2019-02-15T01:55:38.859Z,84.20
2019-02-15T01:58:09.145Z,84.07
2019-02-15T02:00:39.530Z,83.92
2019-02-15T02:03:09.782Z,83.80
2019-02-15T02:05:40.075Z,83.79
2019-02-15T02:08:11.992Z,83.99
2019-02-15T02:10:42.293Z,84.41
2019-02-15T02:13:12.543Z,84.79
2019-02-15T02:15:42.825Z,84.99
2019-02-15T02:18:13.081Z,84.96
2019-02-15T02:20:43.729Z,85.03
2019-02-15T02:23:13.983Z,85.01
2019-02-15T02:25:44.266Z,85.03
2019-02-15T02:28:15.418Z,85.16
2019-02-15T02:30:45.696Z,85.17
2019-02-15T02:33:15.970Z,85.14
2019-02-15T02:38:22.465Z,85.15
2019-02-15T02:40:52.757Z,85.13
2019-02-15T02:43:23.046Z,85.01
2019-02-15T02:45:53.324Z,85.03
2019-02-15T02:48:23.610Z,85.11
2019-02-15T02:50:53.886Z,85.13
2019-02-15T02:53:24.185Z,85.10
2019-02-15T02:55:54.524Z,85.08
2019-02-15T02:58:24.781Z,85.04
2019-02-15T03:00:55.242Z,85.01
2019-02-15T03:03:25.513Z,84.98
2019-02-15T03:05:55.788Z,84.99
2019-02-15T03:08:26.044Z,85.06
2019-02-15T03:10:56.397Z,85.05
2019-02-15T03:13:26.665Z,85.13
2019-02-15T03:15:56.933Z,85.27
2019-02-15T03:18:27.186Z,85.36
2019-02-15T03:20:57.475Z,85.40
2019-02-15T03:23:27.743Z,85.16
2019-02-15T03:25:58.073Z,85.07
2019-02-15T03:28:28.319Z,85.08
2019-02-15T03:30:58.597Z,85.36
2019-02-15T03:33:28.868Z,85.43
2019-02-15T03:36:00.790Z,85.36
2019-02-15T03:38:35.383Z,85.43
2019-02-15T03:41:07.317Z,85.60
2019-02-15T03:43:37.601Z,85.76
2019-02-15T03:46:07.856Z,85.66
2019-02-15T03:48:38.142Z,85.96
2019-02-15T03:51:08.418Z,85.93
2019-02-15T03:53:38.695Z,85.89
2019-02-15T03:56:08.971Z,85.92
2019-02-15T03:58:39.212Z,86.04
2019-02-15T04:01:10.474Z,86.06
2019-02-15T04:03:40.717Z,86.07
2019-02-15T04:06:12.108Z,86.06
2019-02-15T04:08:44.407Z,85.98
2019-02-15T04:11:14.662Z,86.04
2019-02-15T04:13:44.923Z,86.03
2019-02-15T04:16:15.206Z,86.01
2019-02-15T04:18:45.460Z,85.98
2019-02-15T04:21:15.741Z,86.15
2019-02-15T04:23:45.989Z,86.16
2019-02-15T04:26:16.295Z,86.09
2019-02-15T04:28:46.560Z,86.09
2019-02-15T04:31:16.831Z,86.03
2019-02-15T04:33:47.228Z,85.94
2019-02-15T04:36:17.499Z,85.94
2019-02-15T04:38:47.780Z,85.73
2019-02-15T04:41:18.042Z,85.54
2019-02-15T04:43:48.306Z,85.43
2019-02-15T04:46:18.609Z,85.47
2019-02-15T04:48:48.885Z,85.38
2019-02-15T04:51:19.173Z,85.43
2019-02-15T04:53:49.446Z,85.71
2019-02-15T04:56:19.709Z,85.62
2019-02-15T04:58:49.995Z,85.56
2019-02-15T05:01:20.265Z,85.50
2019-02-15T05:03:50.614Z,85.51
2019-02-15T05:06:20.891Z,85.48
2019-02-15T05:08:51.235Z,85.44
2019-02-15T05:11:21.543Z,85.46
2019-02-15T05:13:51.801Z,85.64
2019-02-15T05:16:22.097Z,85.84
2019-02-15T05:18:52.377Z,86.06
2019-02-15T05:21:22.642Z,86.17
2019-02-15T05:23:53.011Z,86.22
2019-02-15T05:26:23.297Z,86.33
2019-02-15T05:28:54.383Z,86.46
2019-02-15T05:31:24.635Z,86.57
2019-02-15T05:33:54.906Z,86.63
2019-02-15T05:36:25.200Z,86.70
2019-02-15T05:38:55.454Z,86.75
2019-02-15T05:41:26.107Z,86.80
2019-02-15T05:43:56.361Z,86.84
2019-02-15T05:46:26.644Z,86.87
2019-02-15T05:48:56.913Z,86.91
2019-02-15T05:51:27.187Z,86.91
2019-02-15T05:53:57.502Z,86.90
2019-02-15T05:56:27.762Z,86.76
2019-02-15T05:58:58.059Z,86.74
2019-02-15T06:01:28.765Z,86.71
2019-02-15T06:03:59.149Z,86.68
2019-02-15T06:06:30.977Z,86.56
2019-02-15T06:09:01.251Z,86.54
2019-02-15T06:11:32.607Z,86.59
2019-02-15T06:14:02.865Z,86.64
2019-02-15T06:16:33.135Z,86.66
2019-02-15T06:19:03.397Z,86.68
2019-02-15T06:21:33.662Z,86.65
2019-02-15T06:24:03.920Z,86.63
2019-02-15T06:26:34.205Z,86.60
2019-02-15T06:29:05.264Z,86.54
2019-02-15T06:31:35.535Z,86.51
2019-02-15T06:34:05.908Z,86.45
2019-02-15T06:36:36.598Z,86.38
2019-02-15T06:39:07.369Z,86.30
2019-02-15T06:41:37.682Z,86.23
2019-02-15T06:44:07.968Z,86.11
2019-02-15T06:46:38.235Z,86.03
2019-02-15T06:49:08.508Z,85.93
2019-02-15T06:51:38.778Z,85.80
2019-02-15T06:54:09.058Z,85.63
2019-02-15T06:56:39.362Z,85.45
2019-02-15T06:59:20.135Z,85.36
2019-02-15T07:01:52.047Z,85.07
2019-02-15T07:04:26.986Z,85.05
2019-02-15T07:06:57.238Z,85.00
2019-02-15T07:09:27.549Z,84.94
2019-02-15T07:11:57.775Z,84.90
2019-02-15T07:14:28.035Z,84.78
2019-02-15T07:16:58.296Z,84.78
2019-02-15T07:19:28.558Z,84.64
2019-02-15T07:21:58.805Z,84.63
2019-02-15T07:24:29.057Z,84.44
2019-02-15T07:26:59.325Z,84.30
2019-02-15T07:29:30.383Z,84.17
2019-02-15T07:32:00.630Z,84.13
2019-02-15T07:34:30.894Z,83.90
2019-02-15T07:37:01.206Z,83.76
2019-02-15T07:39:31.491Z,83.55
2019-02-15T07:42:01.778Z,83.15
2019-02-15T07:44:32.103Z,82.85
2019-02-15T07:47:02.442Z,82.34
2019-02-15T07:49:32.749Z,82.00
2019-02-15T07:52:03.011Z,81.74
2019-02-15T07:54:33.256Z,81.52
2019-02-15T07:57:03.512Z,81.17
2019-02-15T07:59:33.795Z,80.58
2019-02-15T08:02:04.066Z,80.28
2019-02-15T08:04:34.335Z,79.97
2019-02-15T08:07:04.595Z,79.36
2019-02-15T08:09:34.846Z,78.85
2019-02-15T08:12:05.404Z,78.20
2019-02-15T08:14:35.904Z,77.26
2019-02-15T08:17:06.115Z,76.64
2019-02-15T08:19:36.395Z,75.53
2019-02-15T08:22:06.679Z,74.77
2019-02-15T08:24:37.060Z,72.06
2019-02-15T08:27:07.395Z,71.13
2019-02-15T08:29:43.369Z,69.23
2019-02-15T08:32:14.562Z,68.67
2019-02-15T08:34:45.194Z,68.57
2019-02-15T08:37:15.759Z,67.26
2019-02-15T08:39:46.201Z,66.78
2019-02-15T08:42:16.523Z,67.27
2019-02-15T08:44:46.809Z,67.91
2019-02-15T08:47:17.140Z,67.57
2019-02-15T08:49:47.739Z,66.35
2019-02-15T08:52:18.431Z,63.91
2019-02-15T08:54:48.762Z,63.10
2019-02-15T08:57:19.019Z,61.93
2019-02-15T08:59:49.389Z,59.92
2019-02-15T09:02:21.424Z,59.02
2019-02-15T09:04:53.299Z,58.47
2019-02-15T09:07:23.754Z,59.04
2019-02-15T09:09:54.053Z,57.94
2019-02-15T09:12:24.313Z,58.46
2019-02-15T09:14:54.668Z,57.70
2019-02-15T09:17:25.113Z,58.02
2019-02-15T09:19:55.419Z,57.83
2019-02-15T09:22:25.737Z,57.21
2019-02-15T09:24:56.090Z,57.36
2019-02-15T09:27:28.057Z,57.61
2019-02-15T09:29:59.166Z,57.65
2019-02-15T09:32:29.573Z,56.59
2019-02-15T09:34:59.854Z,54.52
2019-02-15T09:37:30.135Z,54.04
2019-02-15T09:40:00.421Z,54.04
2019-02-15T09:42:30.678Z,53.19
2019-02-15T09:53:08.976Z,53.62
2019-02-15T09:55:39.250Z,55.15
2019-02-15T09:58:09.551Z,50.76
2019-02-15T10:00:39.826Z,55.32
2019-02-15T10:03:10.095Z,56.79
2019-02-15T10:05:40.343Z,58.61
2019-02-15T10:08:10.732Z,60.55
2019-02-15T10:10:42.119Z,59.73
2019-02-15T10:13:12.388Z,61.80
2019-02-15T10:15:42.636Z,64.11
2019-02-15T10:18:12.922Z,65.53
2019-02-15T10:20:43.281Z,61.75
2019-02-15T10:23:13.559Z,60.41
2019-02-15T10:25:43.872Z,62.79
2019-02-15T10:28:14.224Z,63.15
2019-02-15T10:30:45.291Z,67.02
2019-02-15T10:33:15.757Z,65.54
2019-02-15T10:35:46.074Z,68.07
2019-02-15T10:38:16.430Z,65.67
2019-02-15T10:40:46.693Z,63.80
2019-02-15T10:43:17.036Z,61.79
2019-02-15T10:45:47.485Z,61.96
2019-02-15T10:48:17.752Z,65.83
2019-02-15T10:50:48.056Z,66.68
2019-02-15T10:53:18.271Z,70.12
2019-02-15T10:55:48.711Z,70.73
2019-02-15T10:58:18.967Z,72.36
2019-02-15T11:00:49.406Z,71.97
2019-02-15T11:03:19.655Z,72.91
2019-02-15T11:05:49.920Z,72.39
2019-02-15T11:08:20.181Z,70.34
2019-02-15T11:10:50.456Z,72.23
2019-02-15T11:13:20.724Z,73.63
2019-02-15T11:15:52.682Z,72.74
2019-02-15T11:18:22.955Z,74.24
2019-02-15T11:20:53.241Z,72.84
2019-02-15T11:23:23.669Z,72.91
2019-02-15T11:25:53.948Z,73.83
2019-02-15T11:28:24.157Z,73.97
2019-02-15T11:30:54.414Z,74.26
2019-02-15T11:33:24.660Z,73.56
2019-02-15T11:35:54.946Z,73.96
2019-02-15T11:38:26.654Z,75.17
2019-02-15T11:40:56.898Z,76.57
2019-02-15T11:43:27.352Z,76.20
2019-02-15T11:45:57.723Z,76.18
2019-02-15T11:48:29.454Z,76.09
2019-02-15T11:50:59.996Z,74.89
2019-02-15T11:53:30.267Z,74.39
2019-02-15T11:56:01.392Z,74.40
2019-02-15T11:58:31.667Z,74.55
2019-02-15T12:01:01.917Z,74.06
2019-02-15T12:03:33.680Z,74.19
2019-02-15T12:06:04.235Z,74.73
2019-02-15T12:08:34.507Z,74.36
2019-02-15T12:11:04.868Z,74.17
2019-02-15T12:13:35.197Z,74.82
2019-02-15T12:16:05.465Z,74.35
2019-02-15T12:18:35.723Z,74.46
2019-02-15T12:21:06.072Z,74.37
2019-02-15T12:23:37.966Z,74.73
2019-02-15T12:26:08.303Z,73.72
2019-02-15T12:28:38.568Z,74.19
2019-02-15T12:31:08.826Z,74.61
2019-02-15T12:33:39.103Z,74.75
2019-02-15T12:36:09.377Z,73.93
2019-02-15T12:38:39.710Z,74.31
2019-02-15T12:41:09.986Z,73.62
2019-02-15T12:43:40.310Z,73.47
2019-02-15T12:46:10.765Z,72.88
2019-02-15T12:48:41.058Z,72.21
2019-02-15T12:51:11.417Z,73.26
2019-02-15T12:53:41.681Z,72.97
2019-02-15T12:56:11.949Z,72.55
2019-02-15T12:58:42.305Z,72.55
2019-02-15T13:01:12.566Z,72.64
2019-02-15T13:03:42.940Z,71.45
2019-02-15T13:06:13.308Z,72.06
2019-02-15T13:08:43.671Z,72.33
2019-02-15T13:11:14.598Z,71.82
2019-02-15T13:13:45.023Z,73.45
2019-02-15T13:16:15.272Z,74.32
2019-02-15T13:18:45.582Z,74.90
2019-02-15T13:21:15.909Z,74.95
2019-02-15T13:23:46.193Z,74.44
2019-02-15T13:26:16.528Z,74.35
2019-02-15T13:28:46.841Z,73.87
2019-02-15T13:31:17.107Z,73.41
2019-02-15T13:33:47.383Z,73.63
2019-02-15T13:36:17.781Z,74.02
2019-02-15T13:38:48.062Z,72.39
2019-02-15T13:41:18.314Z,71.96
2019-02-15T13:43:48.931Z,71.93
2019-02-15T13:46:19.310Z,71.71
2019-02-15T13:48:49.657Z,72.15
2019-02-15T13:51:20.002Z,71.33
2019-02-15T13:53:50.298Z,72.12
2019-02-15T13:56:20.683Z,71.19
2019-02-15T13:58:50.968Z,72.03
2019-02-15T14:01:21.301Z,72.44
2019-02-15T14:03:51.637Z,72.35
2019-02-15T14:06:23.066Z,72.15
2019-02-15T14:08:54.418Z,71.70
2019-02-15T14:11:28.656Z,71.80
2019-02-15T14:13:59.075Z,71.76
2019-02-15T14:16:29.422Z,72.05
2019-02-15T14:18:59.734Z,71.77
2019-02-15T14:21:30.009Z,71.34
2019-02-15T14:24:00.352Z,71.16
2019-02-15T14:26:32.251Z,71.37
2019-02-15T14:29:02.578Z,70.87
2019-02-15T14:31:33.865Z,70.76
2019-02-15T14:34:05.195Z,71.09
2019-02-15T14:36:35.724Z,71.02
2019-02-15T14:39:07.861Z,71.51
2019-02-15T14:41:38.220Z,71.62
2019-02-15T14:44:08.815Z,72.14
2019-02-15T14:46:43.442Z,72.65
2019-02-15T14:49:14.227Z,72.65
2019-02-15T14:51:44.582Z,71.99
2019-02-15T14:54:14.841Z,71.89
2019-02-15T14:56:45.108Z,72.37
2019-02-15T14:59:15.379Z,72.11
2019-02-15T15:01:45.910Z,72.01
2019-02-15T15:04:16.171Z,72.44
2019-02-15T15:06:46.735Z,72.51
2019-02-15T15:09:17.607Z,73.25
2019-02-15T15:11:48.021Z,73.22
2019-02-15T15:14:18.257Z,73.78
2019-02-15T15:16:48.568Z,73.79
2019-02-15T15:19:18.923Z,74.12
2019-02-15T15:21:49.308Z,74.24
2019-02-15T15:24:25.173Z,74.52
2019-02-15T15:26:55.734Z,74.57
2019-02-15T15:29:34.563Z,74.73
2019-02-15T15:32:06.938Z,75.03
2019-02-15T15:38:22.451Z,75.46
2019-02-15T15:41:01.572Z,75.75
2019-02-15T15:43:31.906Z,75.75
2019-02-15T15:46:02.236Z,75.66
2019-02-15T15:48:32.658Z,75.76
2019-02-15T15:51:02.939Z,75.51
2019-02-15T15:53:33.323Z,74.97
2019-02-15T15:56:03.622Z,75.81
2019-02-15T15:58:33.990Z,76.32
2019-02-15T16:01:04.375Z,77.60
2019-02-15T16:03:34.789Z,78.27
2019-02-15T16:06:05.109Z,77.62
2019-02-15T16:08:35.536Z,78.22
2019-02-15T16:11:05.805Z,77.54
2019-02-15T16:13:39.975Z,78.33
2019-02-15T16:16:10.355Z,79.07
2019-02-15T16:18:40.701Z,79.29
2019-02-15T16:21:11.182Z,79.70
2019-02-15T16:23:41.449Z,79.90
2019-02-15T16:26:11.927Z,79.48
2019-02-15T16:28:42.295Z,79.47
2019-02-15T16:31:12.576Z,78.80
2019-02-15T16:33:42.961Z,78.61
2019-02-15T16:36:13.252Z,78.74
2019-02-15T16:38:43.563Z,79.51
2019-02-15T16:41:13.850Z,80.03
2019-02-15T16:43:44.105Z,80.75
2019-02-15T16:46:14.440Z,81.07
2019-02-15T16:48:44.597Z,80.93
2019-02-15T16:51:14.902Z,81.59
2019-02-15T16:53:45.177Z,82.65
2019-02-15T16:56:15.507Z,81.91
2019-02-15T16:58:45.844Z,81.96
2019-02-15T17:01:16.238Z,82.33
2019-02-15T17:03:46.607Z,81.58
2019-02-15T17:06:23.413Z,82.37
2019-02-15T17:08:55.495Z,83.07
2019-02-15T17:11:30.304Z,82.38
2019-02-15T17:14:07.640Z,81.86
2019-02-15T17:16:39.299Z,81.47
2019-02-15T17:19:09.655Z,81.39
2019-02-15T17:21:40.149Z,82.10
2019-02-15T17:24:11.554Z,82.49
2019-02-15T17:26:41.812Z,82.69
2019-02-15T17:29:12.167Z,83.09
2019-02-15T17:31:42.599Z,83.54
2019-02-15T17:34:13.735Z,81.90
2019-02-15T17:36:44.128Z,82.75
2019-02-15T17:39:21.924Z,83.03
2019-02-15T17:41:53.014Z,83.58
2019-02-15T17:44:23.287Z,83.98
2019-02-15T17:46:53.751Z,84.13
2019-02-15T17:49:24.321Z,83.94
2019-02-15T17:51:54.767Z,84.19
2019-02-15T17:54:25.172Z,83.06
2019-02-15T17:56:55.591Z,83.67
2019-02-15T17:59:26.098Z,83.71
2019-02-15T18:01:56.492Z,83.51
2019-02-15T18:04:26.857Z,83.20
2019-02-15T18:06:58.857Z,83.40
2019-02-15T18:09:29.241Z,83.92
2019-02-15T18:12:00.604Z,84.34
2019-02-15T18:14:30.876Z,84.36
2019-02-15T18:17:01.310Z,84.25
2019-02-15T18:19:32.148Z,84.44
2019-02-15T18:22:03.106Z,84.13
2019-02-15T18:24:34.802Z,83.60
2019-02-15T18:27:23.528Z,83.80
2019-02-15T18:29:55.581Z,84.34
2019-02-15T18:32:27.426Z,84.94
2019-02-15T18:34:58.614Z,85.26
2019-02-15T18:45:28.794Z,84.99
2019-02-15T18:48:00.985Z,84.93
2019-02-15T18:50:37.181Z,83.98
2019-02-15T18:53:07.612Z,84.06
2019-02-15T18:55:38.093Z,84.41
2019-02-15T18:58:09.714Z,84.87
2019-02-15T19:00:41.816Z,85.39
2019-02-15T19:03:12.846Z,85.72
2019-02-15T19:05:43.433Z,85.99
2019-02-15T19:08:13.766Z,86.18
2019-02-15T19:10:44.585Z,86.32
2019-02-15T19:13:14.839Z,86.33
2019-02-15T19:15:46.039Z,86.25
2019-02-15T19:18:16.405Z,85.52
2019-02-15T19:20:47.076Z,84.95
2019-02-15T19:23:20.747Z,84.87
2019-02-15T19:25:53.920Z,85.00
2019-02-15T19:29:09.846Z,85.19
2019-02-15T19:31:41.675Z,85.35
2019-02-15T19:34:12.937Z,85.49
2019-02-15T19:36:46.402Z,85.57
2019-02-15T19:39:16.878Z,85.64
2019-02-15T19:41:50.363Z,85.69
2019-02-15T19:44:25.213Z,85.68
2019-02-15T19:47:00.855Z,85.60
2019-02-15T19:49:38.568Z,85.61
2019-02-15T19:52:08.935Z,85.60
2019-02-15T19:54:47.355Z,85.49
2019-02-15T19:57:19.298Z,85.43
2019-02-15T20:04:16.339Z,85.42
2019-02-15T20:06:51.270Z,85.30
2019-02-15T20:09:27.345Z,85.21
2019-02-15T20:12:00.794Z,85.11
2019-02-15T20:14:38.368Z,84.90
2019-02-15T20:17:11.497Z,84.82
2019-02-15T20:19:48.667Z,84.86
2019-02-15T20:26:24.209Z,84.65
2019-02-15T20:28:57.259Z,84.47
2019-02-15T20:31:28.399Z,84.47
2019-02-15T20:33:58.769Z,84.44
2019-02-15T20:36:35.227Z,84.55
2019-02-15T20:39:06.610Z,84.79
2019-02-15T20:41:46.135Z,84.87
2019-02-15T20:44:20.979Z,84.93
2019-02-15T20:46:54.635Z,84.99
2019-02-15T20:49:27.883Z,84.94
2019-02-15T20:51:58.519Z,84.88
2019-02-15T20:54:30.100Z,84.79
2019-02-15T20:57:04.622Z,84.79
2019-02-15T20:59:38.022Z,84.70
2019-02-15T21:02:11.466Z,84.63
2019-02-15T21:04:42.904Z,84.51
2019-02-15T21:07:15.770Z,84.57
2019-02-15T21:09:48.443Z,84.41
2019-02-15T21:12:20.851Z,84.21
2019-02-15T21:14:53.424Z,83.85
2019-02-15T21:17:23.682Z,83.69
2019-02-15T21:19:54.287Z,83.82
2019-02-15T21:22:25.657Z,83.91
2019-02-15T21:24:57.571Z,84.18
2019-02-15T21:27:29.037Z,84.15
2019-02-15T21:30:11.828Z,84.22
2019-02-15T21:32:42.685Z,84.21
2019-02-15T21:35:13.280Z,84.33
2019-02-15T21:37:43.584Z,84.44
2019-02-15T21:40:18.240Z,84.48
2019-02-15T21:42:49.015Z,84.36
2019-02-15T21:45:20.654Z,84.13
2019-02-15T21:47:56.651Z,83.94
2019-02-15T21:50:29.958Z,84.06
2019-02-15T21:53:00.603Z,84.29
2019-02-15T21:55:32.501Z,84.11
2019-02-15T21:58:03.661Z,84.27
2019-02-15T22:00:34.486Z,84.27
2019-02-15T22:03:05.709Z,84.44
2019-02-15T22:05:37.809Z,84.54
2019-02-15T22:08:11.939Z,84.64
2019-02-15T22:10:43.909Z,84.66
2019-02-15T22:13:16.865Z,84.67
2019-02-15T22:15:47.834Z,84.70
2019-02-15T22:18:20.896Z,84.62
2019-02-15T22:20:51.797Z,84.64
2019-02-15T22:23:22.390Z,84.49
2019-02-15T22:25:52.731Z,84.55
2019-02-15T22:28:25.606Z,84.60
2019-02-15T22:34:57.926Z,84.37
2019-02-15T22:37:29.704Z,84.57
2019-02-15T22:40:04.273Z,84.71
2019-02-15T22:42:36.993Z,84.80
2019-02-15T22:45:08.437Z,84.82
2019-02-15T22:47:38.733Z,85.05
2019-02-15T22:50:11.143Z,84.87
2019-02-15T22:52:42.037Z,84.83
2019-02-15T22:55:13.303Z,85.01
2019-02-15T22:57:43.620Z,85.42
2019-02-15T23:00:48.730Z,85.38
2019-02-15T23:03:21.354Z,85.46
2019-02-15T23:05:53.446Z,85.67
2019-02-15T23:08:27.220Z,85.67
2019-02-15T23:10:58.313Z,85.63
2019-02-15T23:13:28.594Z,85.61
2019-02-15T23:15:59.175Z,85.59
2019-02-15T23:18:29.589Z,85.51
2019-02-15T23:20:59.921Z,85.44
2019-02-15T23:23:30.189Z,85.33
2019-02-15T23:26:00.719Z,85.20
2019-02-15T23:28:31.203Z,85.31
2019-02-15T23:31:01.750Z,85.23
2019-02-15T23:33:32.384Z,85.35
2019-02-15T23:36:02.897Z,85.44
2019-02-15T23:38:33.303Z,85.59
2019-02-15T23:41:03.792Z,85.67
2019-02-15T23:43:34.388Z,85.66
2019-02-15T23:46:04.889Z,85.82
2019-02-15T23:48:35.170Z,85.93
2019-02-15T23:51:05.646Z,86.02
2019-02-15T23:53:36.520Z,86.10
2019-02-15T23:56:07.143Z,86.15
2019-02-15T23:58:37.831Z,86.14
